createdAt,value
2018-03-29T00:00:21.317Z,0
2018-03-29T00:01:42.403Z,0
2018-03-29T00:03:04.019Z,0
2018-03-29T00:04:25.900Z,0
2018-03-29T00:05:47.512Z,0
2018-03-29T00:07:09.165Z,0
2018-03-29T00:08:30.509Z,0
2018-03-29T00:09:51.927Z,0
2018-03-29T00:11:13.590Z,0
2018-03-29T00:12:35.268Z,0
2018-03-29T00:13:56.869Z,0
2018-03-29T00:15:18.197Z,0
2018-03-29T00:16:39.532Z,0
2018-03-29T00:18:01.705Z,0
2018-03-29T00:19:23.553Z,0
2018-03-29T00:20:45.507Z,0
2018-03-29T00:22:07.446Z,0
2018-03-29T00:23:28.639Z,0
2018-03-29T00:24:50.494Z,0
2018-03-29T00:26:12.092Z,0
2018-03-29T00:27:34.198Z,0
2018-03-29T00:28:55.269Z,0
2018-03-29T00:30:17.500Z,0
2018-03-29T00:31:39.210Z,0
2018-03-29T00:33:01.114Z,0
2018-03-29T00:34:22.989Z,0
2018-03-29T00:35:44.868Z,0
2018-03-29T00:37:06.782Z,0
2018-03-29T00:38:28.372Z,0
2018-03-29T00:39:49.702Z,0
2018-03-29T00:41:11.658Z,0
2018-03-29T00:42:33.263Z,0
2018-03-29T00:43:55.390Z,0
2018-03-29T00:45:17.008Z,0
2018-03-29T00:46:38.985Z,0
2018-03-29T00:48:00.652Z,0
2018-03-29T00:49:22.801Z,0
2018-03-29T00:50:44.673Z,0
2018-03-29T00:52:06.817Z,0
2018-03-29T00:53:28.459Z,0
2018-03-29T00:54:50.330Z,0
2018-03-29T00:56:12.318Z,0
2018-03-29T00:57:34.441Z,0
2018-03-29T00:58:56.041Z,0
2018-03-29T01:00:18.010Z,0
2018-03-29T01:01:40.018Z,0
2018-03-29T01:03:02.131Z,0
2018-03-29T01:04:24.233Z,0
2018-03-29T01:05:45.882Z,0
2018-03-29T01:07:07.798Z,0
2018-03-29T01:08:29.945Z,0
2018-03-29T01:09:51.848Z,0
2018-03-29T01:11:13.232Z,0
2018-03-29T01:12:35.191Z,0
2018-03-29T01:13:57.046Z,0
2018-03-29T01:15:18.929Z,0
2018-03-29T01:16:41.059Z,0
2018-03-29T01:18:03.267Z,0
2018-03-29T01:19:25.418Z,0
2018-03-29T01:20:47.611Z,0
2018-03-29T01:22:09.717Z,0
2018-03-29T01:23:31.652Z,0
2018-03-29T01:24:53.261Z,0
2018-03-29T01:26:15.142Z,0
2018-03-29T01:27:36.910Z,0
2018-03-29T01:28:58.779Z,0
2018-03-29T01:30:20.147Z,0
2018-03-29T01:31:41.499Z,0
2018-03-29T01:33:03.146Z,0
2018-03-29T01:34:25.012Z,0
2018-03-29T01:35:46.954Z,0
2018-03-29T01:37:08.097Z,0
2018-03-29T01:38:29.959Z,0
2018-03-29T01:39:50.993Z,0
2018-03-29T01:41:12.338Z,0
2018-03-29T01:42:34.223Z,0
2018-03-29T01:43:56.082Z,0
2018-03-29T01:45:17.994Z,0
2018-03-29T01:46:39.330Z,0
2018-03-29T01:48:00.459Z,0
2018-03-29T01:49:22.060Z,0
2018-03-29T01:50:43.410Z,0
2018-03-29T01:52:05.284Z,0
2018-03-29T01:53:27.150Z,0
2018-03-29T01:54:48.771Z,0
2018-03-29T01:56:11.005Z,0
2018-03-29T01:57:32.584Z,0
2018-03-29T01:58:54.206Z,0
2018-03-29T02:00:15.846Z,0
2018-03-29T02:01:37.998Z,0
2018-03-29T02:02:59.717Z,0
2018-03-29T02:04:21.324Z,0
2018-03-29T02:05:43.185Z,0
2018-03-29T02:07:05.035Z,0
2018-03-29T02:08:26.649Z,0
2018-03-29T02:09:48.670Z,0
2018-03-29T02:11:09.773Z,0
2018-03-29T02:12:32.272Z,0
2018-03-29T02:13:54.469Z,0
2018-03-29T02:15:16.601Z,0
2018-03-29T02:16:37.944Z,0
2018-03-29T02:18:00.110Z,0
2018-03-29T02:19:21.760Z,0
2018-03-29T02:20:43.375Z,0
2018-03-29T02:22:05.510Z,0
2018-03-29T02:23:26.874Z,0
2018-03-29T02:24:48.238Z,0
2018-03-29T02:26:10.369Z,0
2018-03-29T02:27:32.494Z,0
2018-03-29T02:28:54.000Z,0
2018-03-29T02:30:16.228Z,0
2018-03-29T02:31:38.190Z,0
2018-03-29T02:32:59.817Z,0
2018-03-29T02:34:21.424Z,0
2018-03-29T02:35:43.308Z,0
2018-03-29T02:37:05.230Z,0
2018-03-29T02:38:27.143Z,0
2018-03-29T02:39:48.498Z,0
2018-03-29T02:41:10.729Z,0
2018-03-29T02:42:32.077Z,0
2018-03-29T02:43:53.421Z,0
2018-03-29T02:45:14.834Z,0
2018-03-29T02:46:36.448Z,0
2018-03-29T02:47:58.685Z,0
2018-03-29T02:49:20.574Z,0
2018-03-29T02:50:42.238Z,0
2018-03-29T02:52:03.864Z,0
2018-03-29T02:53:25.726Z,0
2018-03-29T02:54:47.645Z,0
2018-03-29T02:56:09.247Z,0
2018-03-29T02:57:31.103Z,0
2018-03-29T02:58:52.727Z,0
2018-03-29T03:00:14.606Z,0
2018-03-29T03:01:36.197Z,0
2018-03-29T03:02:58.069Z,0
2018-03-29T03:04:19.151Z,0
2018-03-29T03:05:41.022Z,0
2018-03-29T03:07:02.703Z,0
2018-03-29T03:08:24.299Z,0
2018-03-29T03:09:45.390Z,0
2018-03-29T03:11:07.505Z,0
2018-03-29T03:12:29.163Z,0
2018-03-29T03:13:50.789Z,0
2018-03-29T03:15:12.415Z,0
2018-03-29T03:16:34.270Z,0
2018-03-29T03:17:56.007Z,0
2018-03-29T03:19:17.871Z,0
2018-03-29T03:20:39.207Z,0
2018-03-29T03:22:01.322Z,0
2018-03-29T03:23:23.182Z,0
2018-03-29T03:24:44.801Z,0
2018-03-29T03:26:06.465Z,0
2018-03-29T03:27:28.608Z,0
2018-03-29T03:28:49.956Z,0
2018-03-29T03:30:11.302Z,0
2018-03-29T03:31:32.993Z,0
2018-03-29T03:32:54.351Z,0
2018-03-29T03:34:15.939Z,0
2018-03-29T03:35:38.142Z,0
2018-03-29T03:36:59.992Z,0
2018-03-29T03:38:21.593Z,0
2018-03-29T03:39:43.255Z,0
2018-03-29T03:41:04.852Z,0
2018-03-29T03:42:25.936Z,0
2018-03-29T03:43:47.863Z,0
2018-03-29T03:45:09.785Z,0
2018-03-29T03:46:32.002Z,0
2018-03-29T03:47:53.858Z,0
2018-03-29T03:49:15.483Z,0
2018-03-29T03:50:37.353Z,0
2018-03-29T03:51:59.352Z,0
2018-03-29T03:53:21.224Z,0
2018-03-29T03:54:43.306Z,0
2018-03-29T03:56:04.902Z,0
2018-03-29T03:57:57.881Z,0
2018-03-29T03:59:19.283Z,0
2018-03-29T04:00:41.267Z,0
2018-03-29T04:02:02.635Z,0
2018-03-29T04:03:24.527Z,0
2018-03-29T04:04:46.390Z,0
2018-03-29T04:06:08.533Z,0
2018-03-29T04:07:30.129Z,0
2018-03-29T04:08:51.811Z,0
2018-03-29T04:10:13.686Z,0
2018-03-29T04:11:35.303Z,0
2018-03-29T04:12:56.938Z,0
2018-03-29T04:14:18.855Z,0
2018-03-29T04:15:40.460Z,0
2018-03-29T04:17:02.053Z,0
2018-03-29T04:18:23.658Z,0
2018-03-29T04:19:45.536Z,0
2018-03-29T04:21:07.677Z,0
2018-03-29T04:22:29.089Z,0
2018-03-29T04:23:50.699Z,0
2018-03-29T04:25:12.953Z,0
2018-03-29T04:26:34.579Z,0
2018-03-29T04:27:56.198Z,0
2018-03-29T04:29:18.325Z,0
2018-03-29T04:30:39.763Z,0
2018-03-29T04:32:01.112Z,0
2018-03-29T04:33:22.811Z,0
2018-03-29T04:34:44.413Z,0
2018-03-29T04:36:05.871Z,0
2018-03-29T04:37:27.206Z,0
2018-03-29T04:38:48.544Z,0
2018-03-29T04:40:10.243Z,0
2018-03-29T04:41:32.045Z,4
2018-03-29T04:42:54.183Z,4
2018-03-29T04:44:15.850Z,4
2018-03-29T04:45:37.468Z,4
2018-03-29T04:46:59.684Z,4
2018-03-29T04:48:20.792Z,4
2018-03-29T04:49:42.815Z,8
2018-03-29T04:51:04.204Z,12
2018-03-29T04:52:26.067Z,12
2018-03-29T04:53:47.675Z,16
2018-03-29T04:55:09.266Z,20
2018-03-29T04:56:30.932Z,28
2018-03-29T04:57:52.814Z,40
2018-03-29T04:59:14.657Z,56
2018-03-29T05:00:36.553Z,60
2018-03-29T05:01:58.192Z,60
2018-03-29T05:03:20.099Z,68
2018-03-29T05:04:41.704Z,104
2018-03-29T05:06:03.850Z,116
2018-03-29T05:07:25.293Z,156
2018-03-29T05:08:46.882Z,184
2018-03-29T05:10:08.535Z,228
2018-03-29T05:11:29.976Z,228
2018-03-29T05:12:51.885Z,244
2018-03-29T05:14:13.796Z,272
2018-03-29T05:15:35.935Z,280
2018-03-29T05:16:57.282Z,264
2018-03-29T05:18:19.155Z,320
2018-03-29T05:19:40.488Z,296
2018-03-29T05:21:02.322Z,272
2018-03-29T05:22:24.225Z,436
2018-03-29T05:23:45.876Z,464
2018-03-29T05:25:07.249Z,616
2018-03-29T05:26:29.144Z,620
2018-03-29T05:27:50.748Z,624
2018-03-29T05:29:12.424Z,500
2018-03-29T05:30:33.842Z,524
2018-03-29T05:31:55.702Z,696
2018-03-29T05:33:17.610Z,636
2018-03-29T05:34:39.744Z,392
2018-03-29T05:36:01.373Z,484
2018-03-29T05:37:22.998Z,516
2018-03-29T05:38:44.386Z,836
2018-03-29T05:40:06.607Z,1312
2018-03-29T05:41:28.937Z,1276
2018-03-29T05:42:50.864Z,1148
2018-03-29T05:44:12.794Z,1128
2018-03-29T05:45:34.404Z,1008
2018-03-29T05:46:56.490Z,760
2018-03-29T05:48:18.093Z,616
2018-03-29T05:49:39.958Z,444
2018-03-29T05:51:02.099Z,824
2018-03-29T05:52:23.977Z,772
2018-03-29T05:53:45.933Z,1076
2018-03-29T05:55:07.565Z,856
2018-03-29T05:56:29.604Z,816
2018-03-29T05:57:51.914Z,948
2018-03-29T05:59:13.803Z,812
2018-03-29T06:00:35.951Z,940
2018-03-29T06:01:57.839Z,948
2018-03-29T06:03:19.540Z,920
2018-03-29T06:04:41.685Z,1024
2018-03-29T06:06:03.079Z,1100
2018-03-29T06:07:24.692Z,1104
2018-03-29T06:08:46.385Z,1056
2018-03-29T06:10:07.466Z,1112
2018-03-29T06:11:29.256Z,1232
2018-03-29T06:12:50.628Z,1188
2018-03-29T06:14:12.262Z,1028
2018-03-29T06:15:33.593Z,832
2018-03-29T06:16:55.208Z,804
2018-03-29T06:18:17.226Z,952
2018-03-29T06:19:39.099Z,1248
2018-03-29T06:21:01.083Z,828
2018-03-29T06:22:22.436Z,1008
2018-03-29T06:23:44.161Z,1636
2018-03-29T06:25:06.043Z,1532
2018-03-29T06:26:27.674Z,2468
2018-03-29T06:27:49.424Z,2808
2018-03-29T06:29:11.026Z,2864
2018-03-29T06:30:32.935Z,3588
2018-03-29T06:31:54.596Z,3684
2018-03-29T06:33:16.221Z,3232
2018-03-29T06:34:37.832Z,3060
2018-03-29T06:35:59.174Z,3584
2018-03-29T06:37:20.800Z,4044
2018-03-29T06:38:42.503Z,3844
2018-03-29T06:40:04.657Z,3416
2018-03-29T06:41:26.575Z,4472
2018-03-29T06:42:48.481Z,6260
2018-03-29T06:44:09.887Z,7120
2018-03-29T06:45:31.764Z,7588
2018-03-29T06:46:53.428Z,8384
2018-03-29T06:48:15.190Z,8032
2018-03-29T06:49:37.184Z,7364
2018-03-29T06:50:58.521Z,7184
2018-03-29T06:52:19.886Z,6288
2018-03-29T06:53:41.873Z,5576
2018-03-29T06:55:03.820Z,5376
2018-03-29T06:56:24.914Z,6084
2018-03-29T06:57:46.786Z,7424
2018-03-29T06:59:08.733Z,8044
2018-03-29T07:00:30.609Z,7880
2018-03-29T07:01:52.507Z,8500
2018-03-29T07:03:13.949Z,8288
2018-03-29T07:04:35.815Z,9540
2018-03-29T07:05:57.180Z,8244
2018-03-29T07:07:18.519Z,9908
2018-03-29T07:08:40.673Z,11668
2018-03-29T07:10:02.015Z,9364
2018-03-29T07:11:23.898Z,6132
2018-03-29T07:12:45.535Z,4656
2018-03-29T07:14:07.151Z,4496
2018-03-29T07:15:29.012Z,4872
2018-03-29T07:16:50.646Z,5364
2018-03-29T07:18:12.304Z,5828
2018-03-29T07:19:34.552Z,4392
2018-03-29T07:20:56.425Z,3784
2018-03-29T07:22:18.121Z,4648
2018-03-29T07:23:39.894Z,4448
2018-03-29T07:25:01.522Z,4644
2018-03-29T07:26:23.415Z,8812
2018-03-29T07:27:45.310Z,10188
2018-03-29T07:29:07.223Z,6448
2018-03-29T07:30:29.112Z,4452
2018-03-29T07:31:51.044Z,4236
2018-03-29T07:33:12.655Z,3396
2018-03-29T07:34:34.522Z,3016
2018-03-29T07:35:56.134Z,2804
2018-03-29T07:37:18.161Z,2972
2018-03-29T07:38:39.845Z,3024
2018-03-29T07:40:01.776Z,2580
2018-03-29T07:41:23.665Z,2860
2018-03-29T07:42:45.852Z,5836
2018-03-29T07:44:07.771Z,7468
2018-03-29T07:45:29.974Z,6568
2018-03-29T07:46:52.214Z,4012
2018-03-29T07:48:13.557Z,4236
2018-03-29T07:49:35.704Z,5888
2018-03-29T07:50:57.598Z,7552
2018-03-29T07:52:18.705Z,8640
2018-03-29T07:53:40.600Z,7872
2018-03-29T07:55:02.561Z,8220
2018-03-29T07:56:23.971Z,9520
2018-03-29T07:57:45.582Z,8700
2018-03-29T07:59:07.009Z,8976
2018-03-29T08:00:28.509Z,8912
2018-03-29T08:01:49.531Z,7912
2018-03-29T08:03:11.410Z,7432
2018-03-29T08:04:33.022Z,7660
2018-03-29T08:05:55.013Z,10408
2018-03-29T08:07:16.484Z,13528
2018-03-29T08:08:37.834Z,11268
2018-03-29T08:09:59.245Z,13704
2018-03-29T08:11:20.869Z,13344
2018-03-29T08:12:42.760Z,12440
2018-03-29T08:14:04.708Z,12864
2018-03-29T08:15:26.318Z,12808
2018-03-29T08:16:48.540Z,12752
2018-03-29T08:18:10.233Z,8240
2018-03-29T08:19:32.142Z,7720
2018-03-29T08:20:53.768Z,8388
2018-03-29T08:22:15.362Z,7784
2018-03-29T08:23:36.970Z,9496
2018-03-29T08:24:59.102Z,8096
2018-03-29T08:26:20.987Z,7300
2018-03-29T08:27:42.878Z,6088
2018-03-29T08:29:04.787Z,7708
2018-03-29T08:30:26.891Z,10436
2018-03-29T08:31:48.820Z,7640
2018-03-29T08:33:10.825Z,5892
2018-03-29T08:34:32.802Z,9012
2018-03-29T08:35:54.706Z,12984
2018-03-29T08:37:16.922Z,9312
2018-03-29T08:38:38.811Z,8536
2018-03-29T08:40:00.681Z,11304
2018-03-29T08:41:22.364Z,10176
2018-03-29T08:42:44.339Z,10512
2018-03-29T08:44:05.988Z,11148
2018-03-29T08:45:27.884Z,11960
2018-03-29T08:46:49.650Z,13524
2018-03-29T08:48:11.015Z,16352
2018-03-29T08:49:33.120Z,14984
2018-03-29T08:50:54.726Z,13704
2018-03-29T08:52:16.386Z,13240
2018-03-29T08:53:38.275Z,10264
2018-03-29T08:55:00.182Z,11240
2018-03-29T08:56:21.853Z,9276
2018-03-29T08:57:43.770Z,6184
2018-03-29T08:59:05.908Z,6420
2018-03-29T09:00:27.813Z,7652
2018-03-29T09:01:49.986Z,10304
2018-03-29T09:03:11.339Z,11512
2018-03-29T09:04:33.247Z,13112
2018-03-29T09:05:55.111Z,11300
2018-03-29T09:07:17.023Z,12156
2018-03-29T09:08:38.685Z,9664
2018-03-29T09:10:00.338Z,9736
2018-03-29T09:11:22.280Z,10820
2018-03-29T09:12:44.416Z,11744
2018-03-29T09:14:06.637Z,12060
2018-03-29T09:15:28.690Z,11952
2018-03-29T09:16:50.377Z,12116
2018-03-29T09:18:12.459Z,13428
2018-03-29T09:19:34.407Z,15312
2018-03-29T09:20:56.344Z,15256
2018-03-29T09:22:17.972Z,15576
2018-03-29T09:23:39.622Z,14260
2018-03-29T09:25:01.511Z,14000
2018-03-29T09:26:23.421Z,13040
2018-03-29T09:27:45.604Z,10280
2018-03-29T09:29:06.693Z,9340
2018-03-29T09:30:28.169Z,10344
2018-03-29T09:31:50.054Z,11900
2018-03-29T09:33:11.423Z,11240
2018-03-29T09:34:33.648Z,9952
2018-03-29T09:35:55.664Z,9240
2018-03-29T09:37:17.283Z,9188
2018-03-29T09:38:39.204Z,9340
2018-03-29T09:40:01.494Z,9388
2018-03-29T09:41:23.437Z,9900
2018-03-29T09:42:45.433Z,10140
2018-03-29T09:44:07.675Z,11116
2018-03-29T09:45:29.310Z,11644
2018-03-29T09:46:51.192Z,12732
2018-03-29T09:48:12.860Z,13372
2018-03-29T09:49:34.520Z,14604
2018-03-29T09:50:56.868Z,14388
2018-03-29T09:52:18.340Z,12480
2018-03-29T09:53:39.950Z,12384
2018-03-29T09:55:01.308Z,9952
2018-03-29T09:56:23.955Z,11716
2018-03-29T09:57:46.184Z,11964
2018-03-29T09:59:08.121Z,13112
2018-03-29T10:00:29.743Z,10964
2018-03-29T10:01:51.399Z,11096
2018-03-29T10:03:13.338Z,12840
2018-03-29T10:04:35.556Z,11824
2018-03-29T10:05:56.951Z,12236
2018-03-29T10:07:19.280Z,14012
2018-03-29T10:08:41.448Z,12728
2018-03-29T10:10:03.371Z,10724
2018-03-29T10:11:24.985Z,8272
2018-03-29T10:12:46.379Z,8376
2018-03-29T10:14:08.348Z,12072
2018-03-29T10:15:29.718Z,11080
2018-03-29T10:16:51.896Z,8188
2018-03-29T10:18:13.525Z,8004
2018-03-29T10:19:35.179Z,8436
2018-03-29T10:20:56.917Z,11184
2018-03-29T10:22:19.068Z,11756
2018-03-29T10:23:40.700Z,12600
2018-03-29T10:25:02.320Z,12916
2018-03-29T10:26:24.480Z,14756
2018-03-29T10:27:46.739Z,15540
2018-03-29T10:29:08.637Z,12616
2018-03-29T10:30:30.389Z,9576
2018-03-29T10:31:52.329Z,8600
2018-03-29T10:33:14.474Z,9160
2018-03-29T10:34:36.358Z,11320
2018-03-29T10:35:58.581Z,12684
2018-03-29T10:37:20.247Z,11668
2018-03-29T10:38:42.390Z,11772
2018-03-29T10:40:04.402Z,10928
2018-03-29T10:41:26.063Z,9948
2018-03-29T10:42:48.311Z,11324
2018-03-29T10:44:10.203Z,12544
2018-03-29T10:45:31.571Z,12448
2018-03-29T10:46:53.359Z,10956
2018-03-29T10:48:15.621Z,10948
2018-03-29T10:49:37.874Z,12300
2018-03-29T10:50:59.482Z,11648
2018-03-29T10:52:21.399Z,11696
2018-03-29T10:53:43.138Z,13260
2018-03-29T10:55:04.318Z,15668
2018-03-29T10:56:26.201Z,17056
2018-03-29T10:57:47.559Z,17376
2018-03-29T10:59:09.451Z,17504
2018-03-29T11:00:31.338Z,16460
2018-03-29T11:01:53.230Z,15952
2018-03-29T11:03:15.134Z,15212
2018-03-29T11:04:37.550Z,15300
2018-03-29T11:05:59.521Z,14192
2018-03-29T11:07:21.542Z,13916
2018-03-29T11:08:43.187Z,14240
2018-03-29T11:10:05.053Z,14864
2018-03-29T11:11:27.319Z,15928
2018-03-29T11:12:49.467Z,15664
2018-03-29T11:14:11.631Z,15416
2018-03-29T11:15:33.272Z,15708
2018-03-29T11:16:54.639Z,17632
2018-03-29T11:18:15.996Z,17568
2018-03-29T11:19:37.912Z,17504
2018-03-29T11:20:59.262Z,18080
2018-03-29T11:22:20.903Z,16416
2018-03-29T11:23:42.271Z,18912
2018-03-29T11:25:04.292Z,19616
2018-03-29T11:26:25.936Z,20992
2018-03-29T11:27:48.193Z,18944
2018-03-29T11:29:10.327Z,16800
2018-03-29T11:30:31.951Z,15564
2018-03-29T11:31:54.095Z,11876
2018-03-29T11:33:16.286Z,9744
2018-03-29T11:34:38.216Z,9596
2018-03-29T11:35:59.809Z,9376
2018-03-29T11:37:21.209Z,8356
2018-03-29T11:38:43.157Z,7180
2018-03-29T11:40:05.129Z,6868
2018-03-29T11:41:26.769Z,6628
2018-03-29T11:42:48.677Z,5704
2018-03-29T11:44:10.588Z,4564
2018-03-29T11:45:32.598Z,3672
2018-03-29T11:46:54.219Z,3112
2018-03-29T11:48:16.358Z,2876
2018-03-29T11:49:38.269Z,2884
2018-03-29T11:51:00.489Z,2916
2018-03-29T11:52:22.445Z,2676
2018-03-29T11:53:44.341Z,2692
2018-03-29T11:55:06.664Z,2852
2018-03-29T11:56:28.819Z,3040
2018-03-29T11:57:50.708Z,3732
2018-03-29T11:59:12.768Z,4088
2018-03-29T12:00:34.319Z,4060
2018-03-29T12:01:55.681Z,4156
2018-03-29T12:03:17.606Z,4688
2018-03-29T12:04:39.390Z,4948
2018-03-29T12:06:01.302Z,5620
2018-03-29T12:07:22.756Z,7048
2018-03-29T12:08:44.627Z,9448
2018-03-29T12:10:06.287Z,11892
2018-03-29T12:11:28.457Z,13920
2018-03-29T12:12:50.758Z,15368
2018-03-29T12:14:12.401Z,15396
2018-03-29T12:15:34.310Z,14564
2018-03-29T12:16:56.470Z,13292
2018-03-29T12:18:18.652Z,12496
2018-03-29T12:19:40.649Z,11944
2018-03-29T12:21:02.334Z,11284
2018-03-29T12:22:24.221Z,10928
2018-03-29T12:23:46.371Z,10392
2018-03-29T12:25:08.058Z,10808
2018-03-29T12:26:30.231Z,10552
2018-03-29T12:27:52.554Z,10524
2018-03-29T12:29:14.147Z,11072
2018-03-29T12:30:36.194Z,12416
2018-03-29T12:31:58.354Z,13532
2018-03-29T12:33:20.518Z,12932
2018-03-29T12:34:42.404Z,11572
2018-03-29T12:36:04.284Z,10544
2018-03-29T12:37:26.172Z,10348
2018-03-29T12:38:47.784Z,9424
2018-03-29T12:40:09.430Z,7960
2018-03-29T12:41:31.328Z,6932
2018-03-29T12:42:52.454Z,6300
2018-03-29T12:44:14.151Z,5664
2018-03-29T12:45:36.109Z,5204
2018-03-29T12:46:57.770Z,4796
2018-03-29T12:48:19.878Z,4408
2018-03-29T12:49:41.510Z,4156
2018-03-29T12:51:03.439Z,4096
2018-03-29T12:52:25.198Z,4104
2018-03-29T12:53:47.173Z,4280
2018-03-29T12:55:09.173Z,4084
2018-03-29T12:56:31.083Z,4220
2018-03-29T12:57:52.976Z,4492
2018-03-29T12:59:15.178Z,3944
2018-03-29T13:00:37.397Z,5380
2018-03-29T13:01:59.158Z,6508
2018-03-29T13:03:21.339Z,7628
2018-03-29T13:04:42.951Z,8532
2018-03-29T13:06:04.325Z,10028
2018-03-29T13:07:26.215Z,11016
2018-03-29T13:08:47.602Z,11012
2018-03-29T13:10:09.470Z,10528
2018-03-29T13:11:31.133Z,9980
2018-03-29T13:12:52.763Z,9956
2018-03-29T13:14:14.642Z,10036
2018-03-29T13:15:36.825Z,9984
2018-03-29T13:16:58.959Z,10332
2018-03-29T13:18:20.554Z,11132
2018-03-29T13:19:42.688Z,12144
2018-03-29T13:21:04.840Z,13016
2018-03-29T13:22:27.082Z,12748
2018-03-29T13:23:48.971Z,11780
2018-03-29T13:25:10.371Z,11168
2018-03-29T13:26:32.597Z,10080
2018-03-29T13:27:54.502Z,9272
2018-03-29T13:29:16.667Z,8476
2018-03-29T13:30:38.674Z,7508
2018-03-29T13:32:00.836Z,7080
2018-03-29T13:33:23.084Z,6876
2018-03-29T13:34:45.261Z,6752
2018-03-29T13:36:07.404Z,6608
2018-03-29T13:37:29.393Z,6428
2018-03-29T13:38:50.760Z,6260
2018-03-29T13:40:12.730Z,6260
2018-03-29T13:41:34.104Z,6448
2018-03-29T13:42:56.011Z,6860
2018-03-29T13:44:17.962Z,7456
2018-03-29T13:45:39.713Z,8456
2018-03-29T13:47:01.767Z,9556
2018-03-29T13:48:23.111Z,10388
2018-03-29T13:49:45.279Z,11128
2018-03-29T13:51:07.228Z,12092
2018-03-29T13:52:28.586Z,12752
2018-03-29T13:53:50.234Z,12424
2018-03-29T13:55:12.455Z,13508
2018-03-29T13:56:34.126Z,12648
2018-03-29T13:57:56.106Z,12104
2018-03-29T13:59:17.750Z,12932
2018-03-29T14:00:39.121Z,13208
2018-03-29T14:02:00.807Z,13912
2018-03-29T14:03:22.956Z,13716
2018-03-29T14:04:44.569Z,12304
2018-03-29T14:06:06.458Z,10632
2018-03-29T14:07:27.841Z,9192
2018-03-29T14:08:50.023Z,8220
2018-03-29T14:10:11.974Z,7576
2018-03-29T14:11:33.972Z,7140
2018-03-29T14:12:55.954Z,6828
2018-03-29T14:14:17.861Z,6560
2018-03-29T14:15:39.804Z,6356
2018-03-29T14:17:01.699Z,6276
2018-03-29T14:18:23.758Z,6344
2018-03-29T14:19:45.663Z,6424
2018-03-29T14:21:07.342Z,6420
2018-03-29T14:22:29.252Z,6248
2018-03-29T14:23:51.032Z,6220
2018-03-29T14:25:12.943Z,6364
2018-03-29T14:26:35.095Z,6656
2018-03-29T14:27:56.823Z,7032
2018-03-29T14:29:19.095Z,7260
2018-03-29T14:30:40.734Z,7432
2018-03-29T14:32:02.369Z,7484
2018-03-29T14:33:23.819Z,7216
2018-03-29T14:34:45.770Z,7156
2018-03-29T14:36:08.387Z,7580
2018-03-29T14:37:30.098Z,7728
2018-03-29T14:38:51.763Z,7532
2018-03-29T14:40:13.712Z,7456
2018-03-29T14:41:35.942Z,7300
2018-03-29T14:42:58.201Z,7212
2018-03-29T14:44:19.823Z,7344
2018-03-29T14:45:42.067Z,7628
2018-03-29T14:47:03.854Z,7980
2018-03-29T14:48:26.016Z,7988
2018-03-29T14:49:47.715Z,7684
2018-03-29T14:51:09.412Z,7568
2018-03-29T14:52:31.313Z,7584
2018-03-29T14:53:53.213Z,7604
2018-03-29T14:55:15.193Z,7060
2018-03-29T14:56:37.516Z,6612
2018-03-29T14:57:59.666Z,6520
2018-03-29T14:59:21.564Z,6460
2018-03-29T15:00:43.726Z,6504
2018-03-29T15:02:05.641Z,6612
2018-03-29T15:03:27.021Z,6760
2018-03-29T15:04:48.699Z,6616
2018-03-29T15:06:10.892Z,6444
2018-03-29T15:07:32.788Z,6552
2018-03-29T15:08:55.076Z,6844
2018-03-29T15:10:16.701Z,7036
2018-03-29T15:11:38.976Z,7228
2018-03-29T15:13:00.611Z,7508
2018-03-29T15:14:22.527Z,7684
2018-03-29T15:15:44.415Z,7912
2018-03-29T15:17:06.306Z,7996
2018-03-29T15:18:27.693Z,7904
2018-03-29T15:19:49.346Z,7664
2018-03-29T15:21:11.257Z,7160
2018-03-29T15:22:32.909Z,6808
2018-03-29T15:23:54.534Z,6604
2018-03-29T15:25:16.551Z,6628
2018-03-29T15:26:38.547Z,6584
2018-03-29T15:28:00.332Z,6732
2018-03-29T15:29:22.122Z,6984
2018-03-29T15:30:43.790Z,7128
2018-03-29T15:32:05.741Z,7200
2018-03-29T15:33:27.610Z,7156
2018-03-29T15:34:49.674Z,7060
2018-03-29T15:36:11.883Z,7004
2018-03-29T15:37:34.005Z,6700
2018-03-29T15:38:55.934Z,5776
2018-03-29T15:40:17.662Z,4540
2018-03-29T15:41:39.280Z,3736
2018-03-29T15:43:00.942Z,3200
2018-03-29T15:44:23.114Z,2528
2018-03-29T15:45:45.008Z,2016
2018-03-29T15:47:07.170Z,1672
2018-03-29T15:48:29.550Z,1460
2018-03-29T15:49:51.042Z,1444
2018-03-29T15:51:13.233Z,1452
2018-03-29T15:52:35.492Z,1364
2018-03-29T15:53:57.199Z,1256
2018-03-29T15:55:19.363Z,1204
2018-03-29T15:56:41.492Z,1312
2018-03-29T15:58:03.408Z,1528
2018-03-29T15:59:25.315Z,1780
2018-03-29T16:00:46.694Z,1984
2018-03-29T16:02:08.659Z,2000
2018-03-29T16:03:30.560Z,1848
2018-03-29T16:04:52.716Z,1764
2018-03-29T16:06:14.734Z,1896
2018-03-29T16:07:36.604Z,2328
2018-03-29T16:08:58.485Z,3160
2018-03-29T16:10:20.448Z,4348
2018-03-29T16:11:42.432Z,5780
2018-03-29T16:13:04.342Z,6604
2018-03-29T16:14:26.511Z,6588
2018-03-29T16:15:48.873Z,6548
2018-03-29T16:17:11.047Z,6368
2018-03-29T16:18:33.229Z,6232
2018-03-29T16:19:55.244Z,6016
2018-03-29T16:21:17.371Z,5824
2018-03-29T16:22:39.262Z,5412
2018-03-29T16:24:01.632Z,4924
2018-03-29T16:25:23.244Z,4508
2018-03-29T16:26:45.186Z,4204
2018-03-29T16:28:07.070Z,3944
2018-03-29T16:29:28.709Z,3732
2018-03-29T16:30:50.089Z,3532
2018-03-29T16:32:11.866Z,3368
2018-03-29T16:33:33.496Z,3264
2018-03-29T16:34:55.530Z,3268
2018-03-29T16:36:17.220Z,3280
2018-03-29T16:37:38.412Z,3240
2018-03-29T16:39:00.703Z,3064
2018-03-29T16:40:22.703Z,2780
2018-03-29T16:41:44.968Z,2600
2018-03-29T16:43:06.893Z,2396
2018-03-29T16:44:29.125Z,2140
2018-03-29T16:45:51.294Z,1960
2018-03-29T16:47:12.968Z,1792
2018-03-29T16:48:34.983Z,1616
2018-03-29T16:49:56.925Z,1396
2018-03-29T16:51:19.267Z,1136
2018-03-29T16:52:41.194Z,848
2018-03-29T16:54:03.400Z,624
2018-03-29T16:55:25.624Z,472
2018-03-29T16:56:47.271Z,360
2018-03-29T16:58:09.165Z,272
2018-03-29T16:59:31.312Z,208
2018-03-29T17:00:53.498Z,164
2018-03-29T17:02:15.404Z,140
2018-03-29T17:03:37.411Z,124
2018-03-29T17:04:59.366Z,112
2018-03-29T17:06:21.518Z,116
2018-03-29T17:07:43.780Z,168
2018-03-29T17:09:05.973Z,316
2018-03-29T17:10:27.089Z,504
2018-03-29T17:11:48.717Z,616
2018-03-29T17:13:10.365Z,772
2018-03-29T17:14:32.046Z,1012
2018-03-29T17:15:54.197Z,1264
2018-03-29T17:17:16.388Z,1460
2018-03-29T17:18:38.543Z,1500
2018-03-29T17:20:00.487Z,1544
2018-03-29T17:21:22.482Z,1572
2018-03-29T17:22:44.208Z,1480
2018-03-29T17:24:05.666Z,1312
2018-03-29T17:25:27.302Z,1184
2018-03-29T17:26:49.183Z,1092
2018-03-29T17:28:11.526Z,964
2018-03-29T17:29:33.326Z,824
2018-03-29T17:30:55.698Z,716
2018-03-29T17:32:17.353Z,648
2018-03-29T17:33:39.293Z,596
2018-03-29T17:35:01.572Z,568
2018-03-29T17:36:23.530Z,544
2018-03-29T17:37:45.694Z,496
2018-03-29T17:39:07.615Z,460
2018-03-29T17:40:29.651Z,440
2018-03-29T17:41:51.796Z,404
2018-03-29T17:43:14.134Z,340
2018-03-29T17:44:36.279Z,284
2018-03-29T17:45:58.449Z,248
2018-03-29T17:47:20.339Z,216
2018-03-29T17:48:42.605Z,184
2018-03-29T17:50:04.568Z,152
2018-03-29T17:51:26.498Z,128
2018-03-29T17:52:48.201Z,108
2018-03-29T17:54:10.104Z,92
2018-03-29T17:55:32.288Z,84
2018-03-29T17:56:54.433Z,80
2018-03-29T17:58:16.599Z,80
2018-03-29T17:59:38.080Z,72
2018-03-29T18:00:59.974Z,64
2018-03-29T18:02:21.854Z,56
2018-03-29T18:03:44.125Z,52
2018-03-29T18:05:05.783Z,48
2018-03-29T18:06:27.415Z,44
2018-03-29T18:07:49.035Z,36
2018-03-29T18:09:11.419Z,32
2018-03-29T18:10:33.494Z,28
2018-03-29T18:11:55.248Z,24
2018-03-29T18:13:17.409Z,24
2018-03-29T18:14:39.330Z,24
2018-03-29T18:16:01.510Z,20
2018-03-29T18:17:23.403Z,20
2018-03-29T18:18:45.049Z,20
2018-03-29T18:20:07.052Z,20
2018-03-29T18:21:29.261Z,16
2018-03-29T18:22:51.255Z,16
2018-03-29T18:24:12.630Z,0
2018-03-29T18:25:34.549Z,4
2018-03-29T18:26:56.478Z,4
2018-03-29T18:28:18.429Z,0
2018-03-29T18:29:40.157Z,0
2018-03-29T18:31:02.375Z,0
2018-03-29T18:32:24.619Z,0
2018-03-29T18:33:46.832Z,0
2018-03-29T18:35:09.019Z,0
2018-03-29T18:36:31.372Z,0
2018-03-29T18:37:53.555Z,0
2018-03-29T18:39:15.755Z,0